createdAt,value
2022-12-27T00:01:33.395Z,0.50
2022-12-27T00:04:00.201Z,0.50
2022-12-27T00:06:27.530Z,0.45
2022-12-27T00:08:55.408Z,0.85
2022-12-27T00:11:25.412Z,0.55
2022-12-27T00:13:52.416Z,0.80
2022-12-27T00:16:20.452Z,0.70
2022-12-27T00:18:47.866Z,0.73
2022-12-27T00:21:16.008Z,0.57
2022-12-27T00:23:45.146Z,0.73
2022-12-27T00:26:14.308Z,0.77
2022-12-27T00:28:43.070Z,0.90
2022-12-27T00:31:10.639Z,0.80
2022-12-27T00:33:39.228Z,0.60
2022-12-27T00:36:09.416Z,0.70
2022-12-27T00:38:36.180Z,0.60
2022-12-27T00:41:03.698Z,0.70
2022-12-27T00:43:31.078Z,0.50
2022-12-27T00:45:59.490Z,0.50
2022-12-27T00:48:26.500Z,0.50
2022-12-27T00:50:58.374Z,0.88
2022-12-27T00:53:25.537Z,0.63
2022-12-27T00:55:52.268Z,0.55
2022-12-27T00:58:19.020Z,0.70
2022-12-27T01:00:45.776Z,0.60
2022-12-27T01:03:14.200Z,0.60
2022-12-27T01:05:40.964Z,0.60
2022-12-27T01:08:07.620Z,0.43
2022-12-27T01:10:34.411Z,0.52
2022-12-27T01:13:01.649Z,0.50
2022-12-27T01:15:28.399Z,0.50
2022-12-27T01:17:55.085Z,0.50
2022-12-27T01:20:23.136Z,0.50
2022-12-27T01:22:49.873Z,0.50
2022-12-27T01:25:16.718Z,0.50
2022-12-27T01:27:43.374Z,0.47
2022-12-27T01:30:11.201Z,0.85
2022-12-27T01:32:37.943Z,0.57
2022-12-27T01:35:05.341Z,0.40
2022-12-27T01:37:33.470Z,0.82
2022-12-27T01:40:00.150Z,0.67
2022-12-27T01:42:27.842Z,0.70
2022-12-27T01:44:57.413Z,0.60
2022-12-27T01:47:31.245Z,0.60
2022-12-27T01:50:05.256Z,0.60
2022-12-27T01:52:38.438Z,0.60
2022-12-27T01:55:12.201Z,0.60
2022-12-27T01:57:39.384Z,0.60
2022-12-27T02:00:07.408Z,0.65
2022-12-27T02:02:34.243Z,0.63
2022-12-27T02:05:01.167Z,0.50
2022-12-27T02:07:38.489Z,0.50
2022-12-27T02:10:06.210Z,0.68
2022-12-27T02:12:32.873Z,0.63
2022-12-27T02:14:59.689Z,0.57
2022-12-27T02:17:29.281Z,0.73
2022-12-27T02:20:03.409Z,0.60
2022-12-27T02:23:06.659Z,0.60
2022-12-27T02:25:54.581Z,0.50
2022-12-27T02:28:35.541Z,0.52
2022-12-27T02:31:07.892Z,0.95
2022-12-27T02:33:38.847Z,0.60
2022-12-27T02:36:10.281Z,1.00
2022-12-27T02:38:42.530Z,0.70
2022-12-27T02:41:11.116Z,1.05
2022-12-27T02:43:37.935Z,0.60
2022-12-27T02:46:19.870Z,0.80
2022-12-27T02:48:52.957Z,0.60
2022-12-27T02:51:38.572Z,0.82
2022-12-27T02:54:20.830Z,0.80
2022-12-27T02:56:57.504Z,0.70
2022-12-27T02:59:41.394Z,0.70
2022-12-27T03:02:18.756Z,0.70
2022-12-27T03:04:58.486Z,0.50
2022-12-27T03:07:33.816Z,0.65
2022-12-27T03:10:16.433Z,0.73
2022-12-27T03:12:51.755Z,0.70
2022-12-27T03:15:33.593Z,0.70
2022-12-27T03:18:07.665Z,0.90
2022-12-27T03:20:36.454Z,0.90
2022-12-27T03:23:04.023Z,1.00
2022-12-27T03:25:33.574Z,0.85
2022-12-27T03:28:04.048Z,0.70
2022-12-27T03:30:30.924Z,0.60
2022-12-27T03:33:02.821Z,0.60
2022-12-27T03:35:34.565Z,0.63
2022-12-27T03:38:04.794Z,0.90
2022-12-27T03:40:38.665Z,1.10
2022-12-27T03:43:08.897Z,0.75
2022-12-27T03:45:54.689Z,0.95
2022-12-27T03:48:26.379Z,1.03
2022-12-27T03:50:56.604Z,1.05
2022-12-27T03:53:30.902Z,0.60
2022-12-27T03:55:58.161Z,0.70
2022-12-27T03:58:24.885Z,1.20
2022-12-27T04:00:51.607Z,1.20
2022-12-27T04:03:18.312Z,1.25
2022-12-27T04:05:46.424Z,1.13
2022-12-27T04:08:13.081Z,1.58
2022-12-27T04:10:39.891Z,1.10
2022-12-27T04:13:06.553Z,1.20
2022-12-27T04:15:33.275Z,1.10
2022-12-27T04:17:59.932Z,0.90
2022-12-27T04:20:26.599Z,1.38
2022-12-27T04:22:54.792Z,0.90
2022-12-27T04:25:21.457Z,0.97
2022-12-27T04:27:48.143Z,0.50
2022-12-27T04:30:14.980Z,0.80
2022-12-27T04:32:41.827Z,0.60
2022-12-27T04:35:08.498Z,0.65
2022-12-27T04:37:35.260Z,0.73
2022-12-27T04:40:03.584Z,0.60
2022-12-27T04:42:30.345Z,0.88
2022-12-27T04:44:57.036Z,1.10
2022-12-27T04:47:24.715Z,0.68
2022-12-27T04:49:51.405Z,0.87
2022-12-27T04:52:20.275Z,0.70
2022-12-27T04:54:46.960Z,0.63
2022-12-27T04:57:15.009Z,0.77
2022-12-27T04:59:42.172Z,0.55
2022-12-27T05:02:08.909Z,0.73
2022-12-27T05:04:37.499Z,0.80
2022-12-27T05:07:05.785Z,0.60
2022-12-27T05:09:32.536Z,0.63
2022-12-27T05:11:59.259Z,0.57
2022-12-27T05:14:27.335Z,0.67
2022-12-27T05:16:53.985Z,0.73
2022-12-27T05:19:20.821Z,0.57
2022-12-27T05:21:47.554Z,0.85
2022-12-27T05:24:14.297Z,0.52
2022-12-27T05:26:41.185Z,0.50
2022-12-27T05:29:08.651Z,0.60
2022-12-27T05:31:36.947Z,0.55
2022-12-27T05:34:05.028Z,0.60
2022-12-27T05:36:31.754Z,0.90
2022-12-27T05:38:58.823Z,1.30
2022-12-27T05:41:25.771Z,1.67
2022-12-27T05:43:52.536Z,1.95
2022-12-27T05:46:20.883Z,1.00
2022-12-27T05:48:48.988Z,0.80
2022-12-27T05:51:17.086Z,1.47
2022-12-27T05:53:43.962Z,1.00
2022-12-27T05:56:14.680Z,1.50
2022-12-27T05:58:41.678Z,1.60
2022-12-27T06:01:10.235Z,1.00
2022-12-27T06:03:37.843Z,0.80
2022-12-27T06:06:08.101Z,1.15
2022-12-27T06:08:35.500Z,1.08
2022-12-27T06:11:04.423Z,0.70
2022-12-27T06:13:32.082Z,0.63
2022-12-27T06:15:59.961Z,1.70
2022-12-27T06:18:26.924Z,0.85
2022-12-27T06:20:53.733Z,0.82
2022-12-27T06:23:21.862Z,0.50
2022-12-27T06:25:48.781Z,0.63
2022-12-27T06:28:15.514Z,0.37
2022-12-27T06:30:42.230Z,0.57
2022-12-27T06:33:08.997Z,0.50
2022-12-27T06:35:35.737Z,0.60
2022-12-27T06:38:02.438Z,0.50
2022-12-27T06:40:30.520Z,0.80
2022-12-27T06:42:57.249Z,0.57
2022-12-27T06:45:24.069Z,0.47
2022-12-27T06:47:50.918Z,0.50
2022-12-27T06:50:17.770Z,0.50
2022-12-27T06:52:44.620Z,0.83
2022-12-27T06:55:11.277Z,0.50
2022-12-27T06:57:39.315Z,0.60
2022-12-27T07:00:08.759Z,0.60
2022-12-27T07:02:35.548Z,1.20
2022-12-27T07:05:02.451Z,0.90
2022-12-27T07:07:29.344Z,0.90
2022-12-27T07:10:04.774Z,1.00
2022-12-27T07:12:36.497Z,1.23
2022-12-27T07:15:04.422Z,0.95
2022-12-27T07:17:31.094Z,0.90
2022-12-27T07:19:57.758Z,1.10
2022-12-27T07:22:24.429Z,1.23
2022-12-27T07:24:51.077Z,0.65
2022-12-27T07:27:19.148Z,1.00
2022-12-27T07:29:46.042Z,0.90
2022-12-27T07:32:13.063Z,0.60
2022-12-27T07:34:39.741Z,0.60
2022-12-27T07:37:06.502Z,0.73
2022-12-27T07:39:33.177Z,0.95
2022-12-27T07:42:04.810Z,0.70
2022-12-27T07:44:36.082Z,0.70
2022-12-27T07:47:02.880Z,0.60
2022-12-27T07:49:29.534Z,0.63
2022-12-27T07:51:56.302Z,0.90
2022-12-27T07:54:22.986Z,0.50
2022-12-27T07:56:49.742Z,0.80
2022-12-27T07:59:16.447Z,0.50
2022-12-27T08:01:44.598Z,0.50
2022-12-27T08:04:11.342Z,0.90
2022-12-27T08:06:38.022Z,0.52
2022-12-27T08:09:06.982Z,0.80
2022-12-27T08:11:33.777Z,0.60
2022-12-27T08:14:00.500Z,1.00
2022-12-27T08:16:27.393Z,1.17
2022-12-27T08:18:55.467Z,1.08
2022-12-27T08:21:22.158Z,0.70
2022-12-27T08:23:48.891Z,0.60
2022-12-27T08:26:15.619Z,0.80
2022-12-27T08:28:42.375Z,1.17
2022-12-27T08:31:10.638Z,0.75
2022-12-27T08:33:38.197Z,0.80
2022-12-27T08:38:55.075Z,0.82
2022-12-27T08:41:21.906Z,1.70
2022-12-27T08:43:48.542Z,1.70
2022-12-27T08:46:15.267Z,1.40
2022-12-27T08:48:42.066Z,1.20
2022-12-27T08:51:13.720Z,0.95
2022-12-27T08:53:42.347Z,1.25
2022-12-27T08:56:09.196Z,1.55
2022-12-27T08:58:36.051Z,1.02
2022-12-27T09:01:06.972Z,1.43
2022-12-27T09:03:34.284Z,1.30
2022-12-27T09:06:10.728Z,1.23
2022-12-27T09:08:38.270Z,1.10
2022-12-27T09:11:10.372Z,1.20
2022-12-27T09:13:37.437Z,1.90
2022-12-27T09:16:08.588Z,1.40
2022-12-27T09:18:35.274Z,1.63
2022-12-27T09:21:06.601Z,1.58
2022-12-27T09:23:34.724Z,1.20
2022-12-27T09:26:05.519Z,1.47
2022-12-27T09:28:32.229Z,1.67
2022-12-27T09:30:59.022Z,2.03
2022-12-27T09:33:26.550Z,1.60
2022-12-27T09:35:53.323Z,1.40
2022-12-27T09:38:19.995Z,1.20
2022-12-27T09:40:54.595Z,1.42
2022-12-27T09:43:27.843Z,2.08
2022-12-27T09:45:56.793Z,2.17
2022-12-27T09:48:33.260Z,2.10
2022-12-27T09:51:04.929Z,2.00
2022-12-27T09:53:41.719Z,2.42
2022-12-27T09:56:11.705Z,2.45
2022-12-27T09:58:44.510Z,3.33
2022-12-27T10:01:23.941Z,2.70
2022-12-27T10:03:51.632Z,1.90
2022-12-27T10:06:45.362Z,2.00
2022-12-27T10:09:28.478Z,2.58
2022-12-27T10:12:04.560Z,2.45
2022-12-27T10:14:48.458Z,2.17
2022-12-27T10:17:40.071Z,1.90
2022-12-27T10:20:18.812Z,2.47
2022-12-27T10:22:48.068Z,2.83
2022-12-27T10:25:18.562Z,1.70
2022-12-27T10:27:48.159Z,2.00
2022-12-27T10:30:18.260Z,1.63
2022-12-27T10:32:45.355Z,1.63
2022-12-27T10:35:15.360Z,1.65
2022-12-27T10:37:42.371Z,1.60
2022-12-27T10:40:14.232Z,1.40
2022-12-27T10:42:45.792Z,1.80
2022-12-27T10:45:28.559Z,1.50
2022-12-27T10:47:57.142Z,1.38
2022-12-27T10:50:27.887Z,1.00
2022-12-27T10:52:57.688Z,1.20
2022-12-27T10:55:35.963Z,1.73
2022-12-27T10:58:20.943Z,1.20
2022-12-27T11:00:57.174Z,1.15
2022-12-27T11:03:24.249Z,1.00
2022-12-27T11:06:00.559Z,1.23
2022-12-27T11:08:27.859Z,1.30
2022-12-27T11:11:13.311Z,1.15
2022-12-27T11:13:40.331Z,0.80
2022-12-27T11:16:15.687Z,1.40
2022-12-27T11:18:47.120Z,1.10
2022-12-27T11:21:23.881Z,1.33
2022-12-27T11:23:57.802Z,1.10
2022-12-27T11:26:27.693Z,1.33
2022-12-27T11:28:57.392Z,1.20
2022-12-27T11:31:36.321Z,1.25
2022-12-27T11:34:07.155Z,1.40
2022-12-27T11:36:37.138Z,1.67
2022-12-27T11:39:04.792Z,1.40
2022-12-27T11:41:37.858Z,0.90
2022-12-27T11:44:12.782Z,0.98
2022-12-27T11:46:45.277Z,1.00
2022-12-27T11:49:18.594Z,1.08
2022-12-27T11:52:01.144Z,0.82
2022-12-27T11:55:03.610Z,0.95
2022-12-27T11:57:51.854Z,1.55
2022-12-27T12:00:21.642Z,1.50
2022-12-27T12:03:36.060Z,2.00
2022-12-27T12:06:15.813Z,1.10
2022-12-27T12:09:04.114Z,1.00
2022-12-27T12:11:43.014Z,1.10
2022-12-27T12:14:46.424Z,1.40
2022-12-27T12:17:35.697Z,1.40
2022-12-27T12:20:51.039Z,1.98
2022-12-27T12:23:30.294Z,1.50
2022-12-27T12:26:16.364Z,1.45
2022-12-27T12:29:23.777Z,0.97
2022-12-27T12:32:13.937Z,0.98
2022-12-27T12:35:05.055Z,1.13
2022-12-27T12:38:02.969Z,1.10
2022-12-27T12:40:52.609Z,1.30
2022-12-27T12:43:38.201Z,1.17
2022-12-27T12:46:15.826Z,1.20
2022-12-27T12:49:00.087Z,1.50
2022-12-27T12:51:40.872Z,1.88
2022-12-27T12:54:20.351Z,1.17
2022-12-27T12:57:15.751Z,1.43
2022-12-27T13:00:18.494Z,1.30
2022-12-27T13:03:10.343Z,1.63
2022-12-27T13:05:43.381Z,1.30
2022-12-27T13:08:16.475Z,1.35
2022-12-27T13:10:53.711Z,1.53
2022-12-27T13:13:33.364Z,1.48
2022-12-27T13:16:12.747Z,1.63
2022-12-27T13:18:47.585Z,1.50
2022-12-27T13:21:23.880Z,1.35
2022-12-27T13:24:05.800Z,1.47
2022-12-27T13:26:43.402Z,1.35
2022-12-27T13:29:38.130Z,1.40
2022-12-27T13:32:16.498Z,1.75
2022-12-27T13:34:57.364Z,1.80
2022-12-27T13:37:35.893Z,1.57
2022-12-27T13:40:23.859Z,1.30
2022-12-27T13:43:13.815Z,1.90
2022-12-27T13:45:54.004Z,2.50
2022-12-27T13:48:44.138Z,1.70
2022-12-27T13:51:37.137Z,2.10
2022-12-27T13:54:33.835Z,2.20
2022-12-27T13:57:09.821Z,1.42
2022-12-27T13:59:56.381Z,1.67
2022-12-27T14:02:58.647Z,2.40
2022-12-27T14:06:01.499Z,2.10
2022-12-27T14:08:50.266Z,1.60
2022-12-27T14:11:32.770Z,1.65
2022-12-27T14:14:01.347Z,1.40
2022-12-27T14:16:48.773Z,2.10
2022-12-27T14:19:32.822Z,1.80
2022-12-27T14:22:12.865Z,2.15
2022-12-27T14:25:06.124Z,2.03
2022-12-27T14:28:10.994Z,2.15
2022-12-27T14:31:03.333Z,2.42
2022-12-27T14:34:11.307Z,1.63
2022-12-27T14:37:22.281Z,2.20
2022-12-27T14:40:34.838Z,1.90
2022-12-27T14:43:41.058Z,1.50
2022-12-27T14:46:32.989Z,2.45
2022-12-27T14:49:25.036Z,4.87
2022-12-27T14:52:30.378Z,8.60
2022-12-27T14:55:32.755Z,3.95
2022-12-27T14:58:17.176Z,2.08
2022-12-27T15:01:02.726Z,1.67
2022-12-27T15:03:58.056Z,1.80
2022-12-27T15:06:56.926Z,1.67
2022-12-27T15:09:32.571Z,1.50
2022-12-27T15:12:17.398Z,1.85
2022-12-27T15:14:57.799Z,1.88
2022-12-27T15:17:38.120Z,1.60
2022-12-27T15:20:21.057Z,1.40
2022-12-27T15:23:06.111Z,2.50
2022-12-27T15:25:47.285Z,1.80
2022-12-27T15:28:23.456Z,2.00
2022-12-27T15:30:57.457Z,2.93
2022-12-27T15:33:34.012Z,2.65
2022-12-27T15:36:04.037Z,2.00
2022-12-27T15:38:42.951Z,2.00
2022-12-27T15:41:26.841Z,1.90
2022-12-27T15:44:20.834Z,2.13
2022-12-27T15:47:09.433Z,2.70
2022-12-27T15:49:54.348Z,3.20
2022-12-27T15:52:29.434Z,2.65
2022-12-27T15:55:16.741Z,3.05
2022-12-27T15:58:08.255Z,3.13
2022-12-27T16:00:37.496Z,4.13
2022-12-27T16:03:33.239Z,4.43
2022-12-27T16:06:00.841Z,5.15
2022-12-27T16:08:35.705Z,5.15
2022-12-27T16:11:05.036Z,5.00
2022-12-27T16:13:47.169Z,4.85
2022-12-27T16:16:53.612Z,4.55
2022-12-27T16:19:54.517Z,4.60
2022-12-27T16:22:37.548Z,4.00
2022-12-27T16:25:24.190Z,3.50
2022-12-27T16:27:58.781Z,3.80
2022-12-27T16:30:50.158Z,4.72
2022-12-27T16:33:30.370Z,3.95
2022-12-27T16:36:21.667Z,4.57
2022-12-27T16:38:59.156Z,5.20
2022-12-27T16:41:49.375Z,5.18
2022-12-27T16:44:25.274Z,5.68
2022-12-27T16:47:09.886Z,6.93
2022-12-27T16:49:55.037Z,6.72
2022-12-27T16:52:48.807Z,7.20
2022-12-27T16:56:05.001Z,7.13
2022-12-27T16:58:36.731Z,8.77
2022-12-27T17:01:05.631Z,7.75
2022-12-27T17:03:44.023Z,5.90
2022-12-27T17:06:48.126Z,5.07
2022-12-27T17:09:42.047Z,4.75
2022-12-27T17:12:19.398Z,4.40
2022-12-27T17:14:46.721Z,4.32
2022-12-27T17:17:17.740Z,3.90
2022-12-27T17:19:48.417Z,3.07
2022-12-27T17:22:17.292Z,3.10
2022-12-27T17:24:46.770Z,3.55
2022-12-27T17:27:24.974Z,3.13
2022-12-27T17:30:05.352Z,4.18
2022-12-27T17:32:51.234Z,4.17
2022-12-27T17:35:28.828Z,5.28
2022-12-27T17:38:12.465Z,6.22
2022-12-27T17:40:49.742Z,6.90
2022-12-27T17:43:27.668Z,7.82
2022-12-27T17:46:07.560Z,7.13
2022-12-27T17:48:34.752Z,7.35
2022-12-27T17:51:04.995Z,5.95
2022-12-27T17:53:31.856Z,6.05
2022-12-27T17:56:08.029Z,6.93
2022-12-27T17:58:35.177Z,4.97
2022-12-27T18:01:02.980Z,4.97
2022-12-27T18:03:35.987Z,4.78
2022-12-27T18:06:03.785Z,4.00
2022-12-27T18:08:32.951Z,5.53
2022-12-27T18:11:03.075Z,4.50
2022-12-27T18:13:33.769Z,4.93
2022-12-27T18:16:04.540Z,5.68
2022-12-27T18:18:34.066Z,5.22
2022-12-27T18:21:02.453Z,5.18
2022-12-27T18:23:29.483Z,5.53
2022-12-27T18:26:12.812Z,5.15
2022-12-27T18:28:41.013Z,5.18
2022-12-27T18:31:14.449Z,4.38
2022-12-27T18:33:44.323Z,4.38
2022-12-27T18:36:16.372Z,4.33
2022-12-27T18:38:45.847Z,4.32
2022-12-27T18:41:17.039Z,4.10
2022-12-27T18:43:47.120Z,4.20
2022-12-27T18:46:16.833Z,3.30
2022-12-27T18:48:44.179Z,3.50
2022-12-27T18:51:11.139Z,3.85
2022-12-27T18:53:39.158Z,4.03
2022-12-27T18:56:08.004Z,3.97
2022-12-27T18:58:36.167Z,4.50
2022-12-27T19:01:05.044Z,5.40
2022-12-27T19:03:38.251Z,3.70
2022-12-27T19:06:09.825Z,3.47
2022-12-27T19:08:39.487Z,4.07
2022-12-27T19:11:07.572Z,6.15
2022-12-27T19:13:43.141Z,4.60
2022-12-27T19:16:23.979Z,4.15
2022-12-27T19:18:53.389Z,4.47
2022-12-27T19:21:31.702Z,4.97
2022-12-27T19:23:58.572Z,5.43
2022-12-27T19:26:29.926Z,5.57
2022-12-27T19:29:15.804Z,5.35
2022-12-27T19:31:51.182Z,6.75
2022-12-27T19:34:19.926Z,5.35
2022-12-27T19:36:48.498Z,5.25
2022-12-27T19:39:19.458Z,4.70
2022-12-27T19:41:47.171Z,4.53
2022-12-27T19:44:15.964Z,4.55
2022-12-27T19:46:42.824Z,4.13
2022-12-27T19:51:57.191Z,3.83
2022-12-27T19:54:24.321Z,4.35
2022-12-27T19:56:51.640Z,4.07
2022-12-27T19:59:21.379Z,4.38
2022-12-27T20:01:48.601Z,4.45
2022-12-27T20:04:16.505Z,3.70
2022-12-27T20:06:43.748Z,4.43
2022-12-27T20:09:14.137Z,4.13
2022-12-27T20:11:41.282Z,3.95
2022-12-27T20:14:08.125Z,4.78
2022-12-27T20:16:36.449Z,4.10
2022-12-27T20:19:03.644Z,4.20
2022-12-27T20:21:30.368Z,4.18
2022-12-27T20:23:57.093Z,4.28
2022-12-27T20:26:25.531Z,4.55
2022-12-27T20:28:52.918Z,3.97
2022-12-27T20:31:21.858Z,4.15
2022-12-27T20:33:52.977Z,4.50
2022-12-27T20:36:19.652Z,4.78
2022-12-27T20:38:46.319Z,4.40
2022-12-27T20:41:15.768Z,4.57
2022-12-27T20:43:43.004Z,4.75
2022-12-27T20:46:12.058Z,5.30
2022-12-27T20:48:39.565Z,5.18
2022-12-27T20:51:09.491Z,5.82
2022-12-27T20:53:36.437Z,5.23
2022-12-27T20:56:04.785Z,5.07
2022-12-27T20:58:32.142Z,4.53
2022-12-27T21:01:04.794Z,5.22
2022-12-27T21:03:31.545Z,5.20
2022-12-27T21:05:58.240Z,5.30
2022-12-27T21:08:26.281Z,5.43
2022-12-27T21:10:53.045Z,5.80
2022-12-27T21:13:19.883Z,5.32
2022-12-27T21:15:46.565Z,5.00
2022-12-27T21:18:13.267Z,4.70
2022-12-27T21:20:39.950Z,4.78
2022-12-27T21:23:06.655Z,5.30
2022-12-27T21:25:34.767Z,4.80
2022-12-27T21:28:01.515Z,4.53
2022-12-27T21:30:28.245Z,4.57
2022-12-27T21:32:54.950Z,4.90
2022-12-27T21:35:21.661Z,4.60
2022-12-27T21:37:48.347Z,4.53
2022-12-27T21:40:15.105Z,4.60
2022-12-27T21:42:43.182Z,4.57
2022-12-27T21:45:10.411Z,5.22
2022-12-27T21:47:37.226Z,5.55
2022-12-27T21:50:04.238Z,4.15
2022-12-27T21:52:30.997Z,6.10
2022-12-27T21:54:57.677Z,6.53
2022-12-27T21:57:24.338Z,8.30
2022-12-27T21:59:52.391Z,7.10
2022-12-27T22:02:19.166Z,6.72
2022-12-27T22:04:46.032Z,5.72
2022-12-27T22:07:12.693Z,5.53
2022-12-27T22:09:39.347Z,5.45
2022-12-27T22:12:06.329Z,5.72
2022-12-27T22:14:36.869Z,6.18
2022-12-27T22:17:05.300Z,6.05
2022-12-27T22:19:32.068Z,5.77
2022-12-27T22:21:58.843Z,6.63
2022-12-27T22:24:25.594Z,7.05
2022-12-27T22:26:52.307Z,6.47
2022-12-27T22:29:19.010Z,6.20
2022-12-27T22:31:45.825Z,6.17
2022-12-27T22:34:13.924Z,5.75
2022-12-27T22:36:40.639Z,6.75
2022-12-27T22:39:07.579Z,6.88
2022-12-27T22:41:36.696Z,6.25
2022-12-27T22:44:09.837Z,6.80
2022-12-27T22:47:06.865Z,6.65
2022-12-27T22:49:24.929Z,6.53
2022-12-27T22:51:52.000Z,7.18
2022-12-27T22:54:18.712Z,7.07
2022-12-27T22:56:45.418Z,6.47
2022-12-27T22:59:13.670Z,5.85
2022-12-27T23:01:42.769Z,6.63
2022-12-27T23:04:11.466Z,6.68
2022-12-27T23:06:40.280Z,6.40
2022-12-27T23:09:07.293Z,5.97
2022-12-27T23:11:35.490Z,6.18
2022-12-27T23:14:04.379Z,5.70
2022-12-27T23:16:36.560Z,6.45
2022-12-27T23:19:03.312Z,7.22
2022-12-27T23:21:30.097Z,6.37
2022-12-27T23:23:58.242Z,7.00
2022-12-27T23:26:24.949Z,6.90
2022-12-27T23:28:53.218Z,6.55
2022-12-27T23:31:21.842Z,6.95
2022-12-27T23:33:48.678Z,6.60
2022-12-27T23:36:15.706Z,6.70
2022-12-27T23:38:43.163Z,6.63
2022-12-27T23:41:15.029Z,6.43
2022-12-27T23:43:56.978Z,6.47
2022-12-27T23:46:26.062Z,5.13
2022-12-27T23:48:53.104Z,5.63
2022-12-27T23:51:20.669Z,6.70
2022-12-27T23:53:47.414Z,5.55
2022-12-27T23:56:17.860Z,5.85
2022-12-27T23:58:45.293Z,5.17
